createdAt,value
2017-09-08T00:01:57.570Z,19.25
2017-09-08T00:04:24.005Z,19.12
2017-09-08T00:06:50.440Z,19.14
2017-09-08T00:09:16.878Z,19.18
2017-09-08T00:11:43.318Z,19.21
2017-09-08T00:14:10.566Z,19.19
2017-09-08T00:16:37.001Z,19.09
2017-09-08T00:19:03.435Z,19.08
2017-09-08T00:21:29.869Z,19.05
2017-09-08T00:23:56.303Z,18.99
2017-09-08T00:26:22.718Z,18.94
2017-09-08T00:28:49.161Z,18.83
2017-09-08T00:31:16.424Z,18.68
2017-09-08T00:33:42.866Z,18.52
2017-09-08T00:36:09.400Z,18.48
2017-09-08T00:38:35.836Z,18.61
2017-09-08T00:41:02.269Z,18.67
2017-09-08T00:43:28.703Z,18.69
2017-09-08T00:45:55.139Z,18.65
2017-09-08T00:48:22.290Z,18.55
2017-09-08T00:50:48.724Z,18.44
2017-09-08T00:53:15.162Z,18.33
2017-09-08T00:55:41.595Z,18.29
2017-09-08T00:58:08.029Z,18.26
2017-09-08T01:00:34.467Z,18.34
2017-09-08T01:03:00.900Z,18.45
2017-09-08T01:05:28.155Z,18.50
2017-09-08T01:07:54.588Z,18.55
2017-09-08T01:10:21.128Z,18.59
2017-09-08T01:12:47.561Z,18.63
2017-09-08T01:15:13.995Z,18.63
2017-09-08T01:17:40.413Z,18.53
2017-09-08T01:20:06.854Z,18.43
2017-09-08T01:22:34.120Z,18.47
2017-09-08T01:25:00.555Z,18.48
2017-09-08T01:27:26.989Z,18.48
2017-09-08T01:29:53.424Z,18.46
2017-09-08T01:32:19.860Z,18.39
2017-09-08T01:34:46.294Z,18.26
2017-09-08T01:37:12.833Z,18.21
2017-09-08T01:39:39.870Z,18.22
2017-09-08T01:42:06.312Z,18.19
2017-09-08T01:44:32.750Z,18.05
2017-09-08T01:46:59.181Z,18.13
2017-09-08T01:49:25.622Z,18.17
2017-09-08T01:51:52.056Z,18.15
2017-09-08T01:54:18.487Z,18.05
2017-09-08T01:56:45.685Z,18.00
2017-09-08T01:59:12.179Z,17.98
2017-09-08T02:01:38.614Z,17.87
2017-09-08T02:04:05.098Z,17.85
2017-09-08T02:06:31.564Z,17.94
2017-09-08T02:11:24.251Z,18.04
2017-09-08T02:13:51.391Z,18.06
2017-09-08T02:16:17.833Z,18.14
2017-09-08T02:18:44.251Z,18.17
2017-09-08T02:21:10.707Z,18.20
2017-09-08T02:23:37.142Z,18.17
2017-09-08T02:26:03.577Z,18.10
2017-09-08T02:28:30.012Z,18.06
2017-09-08T02:30:57.163Z,18.01
2017-09-08T02:33:23.599Z,17.95
2017-09-08T02:35:50.033Z,17.94
2017-09-08T02:38:16.467Z,17.90
2017-09-08T02:40:42.907Z,17.80
2017-09-08T02:43:09.340Z,17.78
2017-09-08T02:45:35.776Z,17.70
2017-09-08T02:48:02.922Z,17.75
2017-09-08T02:50:29.360Z,17.84
2017-09-08T02:52:55.791Z,17.82
2017-09-08T02:55:22.228Z,17.82
2017-09-08T02:57:48.664Z,17.66
2017-09-08T03:00:15.099Z,17.48
2017-09-08T03:02:41.534Z,17.52
2017-09-08T03:05:08.788Z,17.65
2017-09-08T03:07:35.223Z,17.72
2017-09-08T03:10:01.659Z,17.64
2017-09-08T03:12:28.092Z,17.48
2017-09-08T03:14:54.528Z,17.33
2017-09-08T03:17:20.962Z,17.42
2017-09-08T03:19:47.397Z,17.46
2017-09-08T03:22:14.549Z,17.47
2017-09-08T03:24:41.086Z,17.43
2017-09-08T03:27:07.521Z,17.48
2017-09-08T03:29:33.958Z,17.56
2017-09-08T03:32:00.389Z,17.56
2017-09-08T03:34:26.825Z,17.52
2017-09-08T03:36:53.259Z,17.48
2017-09-08T03:39:20.413Z,17.37
2017-09-08T03:41:46.847Z,17.30
2017-09-08T03:44:13.282Z,17.20
2017-09-08T03:46:39.668Z,17.04
2017-09-08T03:49:06.154Z,16.87
2017-09-08T03:51:32.587Z,16.82
2017-09-08T03:53:59.111Z,16.87
2017-09-08T03:56:26.229Z,16.94
2017-09-08T03:58:52.693Z,17.05
2017-09-08T04:01:19.137Z,17.12
2017-09-08T04:03:45.581Z,17.21
2017-09-08T04:06:12.014Z,17.20
2017-09-08T04:08:38.449Z,17.22
2017-09-08T04:11:04.885Z,17.22
2017-09-08T04:13:32.135Z,17.13
2017-09-08T04:15:58.576Z,17.10
2017-09-08T04:18:25.111Z,17.21
2017-09-08T04:20:51.545Z,17.34
2017-09-08T04:23:17.980Z,17.43
2017-09-08T04:25:44.416Z,17.51
2017-09-08T04:28:10.855Z,17.59
2017-09-08T04:30:38.101Z,17.64
2017-09-08T04:33:04.540Z,17.77
2017-09-08T04:35:31.076Z,17.85
2017-09-08T04:37:57.512Z,17.92
2017-09-08T04:40:23.948Z,18.00
2017-09-08T04:42:50.383Z,18.06
2017-09-08T04:45:16.816Z,18.13
2017-09-08T04:47:43.970Z,18.21
2017-09-08T04:50:10.406Z,18.28
2017-09-08T04:52:36.838Z,18.34
2017-09-08T04:55:03.275Z,18.40
2017-09-08T04:57:29.669Z,18.46
2017-09-08T04:59:56.144Z,18.54
2017-09-08T05:02:22.578Z,18.62
2017-09-08T05:04:49.834Z,18.70
2017-09-08T05:07:16.267Z,18.77
2017-09-08T05:09:42.700Z,18.82
2017-09-08T05:12:09.237Z,18.89
2017-09-08T05:14:35.674Z,18.84
2017-09-08T05:17:02.210Z,18.58
2017-09-08T05:19:28.644Z,18.32
2017-09-08T05:21:55.791Z,18.17
2017-09-08T05:24:22.233Z,18.05
2017-09-08T05:26:48.663Z,18.04
2017-09-08T05:29:15.103Z,18.01
2017-09-08T05:31:41.537Z,18.08
2017-09-08T05:34:07.971Z,18.22
2017-09-08T05:36:34.406Z,18.38
2017-09-08T05:39:01.353Z,18.54
2017-09-08T05:41:27.790Z,18.75
2017-09-08T05:43:54.220Z,18.95
2017-09-08T05:46:20.841Z,19.14
2017-09-08T05:48:47.282Z,19.30
2017-09-08T05:51:13.964Z,19.42
2017-09-08T05:53:40.698Z,19.44
2017-09-08T05:56:07.409Z,19.43
2017-09-08T05:58:33.856Z,19.39
2017-09-08T06:01:00.496Z,19.37
2017-09-08T06:05:58.076Z,19.63
2017-09-08T06:08:25.372Z,19.66
2017-09-08T06:10:51.865Z,19.69
2017-09-08T06:13:18.404Z,19.84
2017-09-08T06:15:46.172Z,20.00
2017-09-08T06:18:12.813Z,20.14
2017-09-08T06:20:39.924Z,20.34
2017-09-08T06:23:06.603Z,20.60
2017-09-08T06:25:33.445Z,20.80
2017-09-08T06:27:59.837Z,21.02
2017-09-08T06:30:26.316Z,21.27
2017-09-08T06:32:53.160Z,21.52
2017-09-08T06:35:19.646Z,21.72
2017-09-08T06:37:46.134Z,21.96
2017-09-08T06:40:12.871Z,22.18
2017-09-08T06:42:39.412Z,22.37
2017-09-08T06:45:05.949Z,22.59
2017-09-08T06:47:32.388Z,22.82
2017-09-08T06:49:59.330Z,23.00
2017-09-08T06:52:26.687Z,23.19
2017-09-08T06:54:53.224Z,23.34
2017-09-08T06:57:20.069Z,23.50
2017-09-08T06:59:46.606Z,23.66
2017-09-08T07:02:13.112Z,23.78
2017-09-08T07:04:39.681Z,24.02
2017-09-08T07:07:06.116Z,24.10
2017-09-08T07:09:32.654Z,24.20
2017-09-08T07:11:59.602Z,24.20
2017-09-08T07:14:26.449Z,24.37
2017-09-08T07:16:52.982Z,24.48
2017-09-08T07:19:19.669Z,24.62
2017-09-08T07:21:46.161Z,24.88
2017-09-08T07:24:12.699Z,24.95
2017-09-08T07:26:39.849Z,25.13
2017-09-08T07:29:07.000Z,25.17
2017-09-08T07:31:33.538Z,25.23
2017-09-08T07:34:00.382Z,25.37
2017-09-08T07:36:26.918Z,25.35
2017-09-08T07:38:53.557Z,25.48
2017-09-08T07:41:20.301Z,25.33
2017-09-08T07:43:46.837Z,25.35
2017-09-08T07:46:13.358Z,25.50
2017-09-08T07:48:40.322Z,25.64
2017-09-08T07:51:07.140Z,25.66
2017-09-08T07:53:33.586Z,25.76
2017-09-08T07:56:00.341Z,25.81
2017-09-08T07:58:26.870Z,25.89
2017-09-08T08:00:53.316Z,26.06
2017-09-08T08:03:20.162Z,26.11
2017-09-08T08:05:46.700Z,26.20
2017-09-08T08:08:13.213Z,26.34
2017-09-08T08:10:40.181Z,26.38
2017-09-08T08:13:06.718Z,26.54
2017-09-08T08:15:33.257Z,26.71
2017-09-08T08:18:00.305Z,26.88
2017-09-08T08:20:26.843Z,27.06
2017-09-08T08:22:53.382Z,27.13
2017-09-08T08:25:20.123Z,27.25
2017-09-08T08:27:46.555Z,27.29
2017-09-08T08:30:13.093Z,27.41
2017-09-08T08:32:40.744Z,27.46
2017-09-08T08:35:07.165Z,27.44
2017-09-08T08:37:33.605Z,27.43
2017-09-08T08:40:00.165Z,27.60
2017-09-08T08:42:26.694Z,27.78
2017-09-08T08:44:53.547Z,27.83
2017-09-08T08:47:20.277Z,28.03
2017-09-08T08:49:46.825Z,28.05
2017-09-08T08:52:13.367Z,27.87
2017-09-08T08:54:40.105Z,27.92
2017-09-08T08:57:06.597Z,28.03
2017-09-08T08:59:33.163Z,28.14
2017-09-08T09:02:00.026Z,28.26
2017-09-08T09:04:26.563Z,28.45
2017-09-08T09:06:53.148Z,28.54
2017-09-08T09:09:20.239Z,28.67
2017-09-08T09:11:46.787Z,28.67
2017-09-08T09:14:13.326Z,28.46
2017-09-08T09:16:40.069Z,28.47
2017-09-08T09:19:06.860Z,28.41
2017-09-08T09:21:33.327Z,28.52
2017-09-08T09:23:59.884Z,28.57
2017-09-08T09:26:26.318Z,28.49
2017-09-08T09:28:52.858Z,28.43
2017-09-08T09:31:19.703Z,28.58
2017-09-08T09:33:46.239Z,28.67
2017-09-08T09:36:12.735Z,28.72
2017-09-08T09:38:39.621Z,28.90
2017-09-08T09:41:06.048Z,28.90
2017-09-08T09:43:32.596Z,28.83
2017-09-08T09:45:59.436Z,29.00
2017-09-08T09:48:25.871Z,29.05
2017-09-08T09:50:52.594Z,29.06
2017-09-08T09:53:19.567Z,28.97
2017-09-08T09:55:46.180Z,29.00
2017-09-08T09:58:12.636Z,28.86
2017-09-08T10:00:39.275Z,28.81
2017-09-08T10:03:05.760Z,29.00
2017-09-08T10:05:32.454Z,29.12
2017-09-08T10:07:59.295Z,29.11
2017-09-08T10:10:25.834Z,29.16
2017-09-08T10:12:52.370Z,29.37
2017-09-08T10:15:19.521Z,29.28
2017-09-08T10:17:45.915Z,29.43
2017-09-08T10:20:12.443Z,29.35
2017-09-08T10:22:39.748Z,29.23
2017-09-08T10:25:06.184Z,29.33
2017-09-08T10:27:32.720Z,29.35
2017-09-08T10:29:59.565Z,29.41
2017-09-08T10:32:25.998Z,29.41
2017-09-08T10:34:52.497Z,29.44
2017-09-08T10:37:19.076Z,29.72
2017-09-08T10:39:45.611Z,29.73
2017-09-08T10:42:12.056Z,29.68
2017-09-08T10:44:38.788Z,29.75
2017-09-08T10:47:05.530Z,29.68
2017-09-08T10:49:32.170Z,29.50
2017-09-08T10:51:59.116Z,29.65
2017-09-08T10:54:25.609Z,29.91
2017-09-08T10:56:52.090Z,30.14
2017-09-08T10:59:18.936Z,30.16
2017-09-08T11:01:45.368Z,30.22
2017-09-08T11:04:11.757Z,30.38
2017-09-08T11:06:39.262Z,30.37
2017-09-08T11:09:05.697Z,30.31
2017-09-08T11:11:32.133Z,30.32
2017-09-08T11:13:58.976Z,30.30
2017-09-08T11:16:25.411Z,30.62
2017-09-08T11:18:53.075Z,30.95
2017-09-08T11:21:19.711Z,31.56
2017-09-08T11:23:46.149Z,32.03
2017-09-08T11:26:12.670Z,32.51
2017-09-08T11:28:39.313Z,32.88
2017-09-08T11:31:05.863Z,33.34
2017-09-08T11:33:32.301Z,33.19
2017-09-08T11:35:59.039Z,33.06
2017-09-08T11:38:26.757Z,33.33
2017-09-08T11:40:53.549Z,33.77
2017-09-08T11:43:20.290Z,33.76
2017-09-08T11:45:47.144Z,33.77
2017-09-08T11:48:13.572Z,33.88
2017-09-08T11:50:40.352Z,34.04
2017-09-08T11:53:06.855Z,34.64
2017-09-08T11:55:33.489Z,35.10
2017-09-08T11:58:00.204Z,35.58
2017-09-08T12:00:26.752Z,36.09
2017-09-08T12:02:53.192Z,37.14
2017-09-08T12:05:21.077Z,37.59
2017-09-08T12:07:47.610Z,38.21
2017-09-08T12:10:14.149Z,38.72
2017-09-08T12:12:41.402Z,38.74
2017-09-08T12:15:08.242Z,39.25
2017-09-08T12:17:34.988Z,39.42
2017-09-08T12:20:02.139Z,39.32
2017-09-08T12:22:29.395Z,39.29
2017-09-08T12:24:56.056Z,39.41
2017-09-08T12:27:22.980Z,39.87
2017-09-08T12:29:49.826Z,39.48
2017-09-08T12:32:16.259Z,40.26
2017-09-08T12:34:42.795Z,40.69
2017-09-08T12:37:09.331Z,40.59
2017-09-08T12:39:36.600Z,40.39
2017-09-08T12:42:03.432Z,40.86
2017-09-08T12:44:29.866Z,41.71
2017-09-08T12:46:56.304Z,42.21
2017-09-08T12:49:22.839Z,42.22
2017-09-08T12:51:49.376Z,42.60
2017-09-08T12:54:15.918Z,42.45
2017-09-08T12:56:42.563Z,42.72
2017-09-08T12:59:09.096Z,42.82
2017-09-08T13:01:35.580Z,42.78
2017-09-08T13:04:03.765Z,42.42
2017-09-08T13:06:30.345Z,42.15
2017-09-08T13:08:56.877Z,42.36
2017-09-08T13:11:23.930Z,43.04
2017-09-08T13:13:50.466Z,43.21
2017-09-08T13:16:17.005Z,43.73
2017-09-08T13:18:43.741Z,44.10
2017-09-08T13:21:10.284Z,44.29
2017-09-08T13:23:36.821Z,44.67
2017-09-08T13:26:03.648Z,44.81
2017-09-08T13:28:30.130Z,44.03
2017-09-08T13:30:56.635Z,43.62
2017-09-08T13:33:23.377Z,43.45
2017-09-08T13:35:50.324Z,44.32
2017-09-08T13:38:16.964Z,44.05
2017-09-08T13:40:44.042Z,43.53
2017-09-08T13:43:10.655Z,42.46
2017-09-08T13:45:37.617Z,41.94
2017-09-08T13:48:04.118Z,41.04
2017-09-08T13:50:30.777Z,41.19
2017-09-08T13:52:57.417Z,41.95
2017-09-08T13:55:24.060Z,42.65
2017-09-08T13:57:50.596Z,43.33
2017-09-08T14:00:17.340Z,43.61
2017-09-08T14:02:43.975Z,43.64
2017-09-08T14:05:10.616Z,43.79
2017-09-08T14:07:37.357Z,44.46
2017-09-08T14:10:04.202Z,44.78
2017-09-08T14:12:30.945Z,45.01
2017-09-08T14:14:57.482Z,45.09
2017-09-08T14:17:24.429Z,45.37
2017-09-08T14:19:51.067Z,45.46
2017-09-08T14:22:17.504Z,45.17
2017-09-08T14:24:43.936Z,43.82
2017-09-08T14:27:10.986Z,42.35
2017-09-08T14:29:37.542Z,40.76
2017-09-08T14:32:04.265Z,39.61
2017-09-08T14:34:31.008Z,38.72
2017-09-08T14:36:57.852Z,37.84
2017-09-08T14:39:24.493Z,37.14
2017-09-08T14:41:51.132Z,36.21
2017-09-08T14:44:17.876Z,35.62
2017-09-08T14:46:44.718Z,34.85
2017-09-08T14:49:11.241Z,34.59
2017-09-08T14:51:37.682Z,34.51
2017-09-08T14:54:04.126Z,34.35
2017-09-08T14:56:30.560Z,34.12
2017-09-08T14:58:56.996Z,33.99
2017-09-08T15:01:23.432Z,33.67
2017-09-08T15:03:49.864Z,33.19
2017-09-08T15:06:16.709Z,32.86
2017-09-08T15:08:43.145Z,32.43
2017-09-08T15:11:09.581Z,32.39
2017-09-08T15:13:36.014Z,32.40
2017-09-08T15:16:02.485Z,32.43
2017-09-08T15:18:28.986Z,32.23
2017-09-08T15:20:55.420Z,32.15
2017-09-08T15:23:21.943Z,32.01
2017-09-08T15:25:48.393Z,31.95
2017-09-08T15:28:14.828Z,31.96
2017-09-08T15:30:41.247Z,31.88
2017-09-08T15:33:07.692Z,31.78
2017-09-08T15:35:34.134Z,31.67
2017-09-08T15:38:01.278Z,31.60
2017-09-08T15:40:27.719Z,31.60
2017-09-08T15:42:54.157Z,31.54
2017-09-08T15:45:20.692Z,31.51
2017-09-08T15:47:47.198Z,31.39
2017-09-08T15:50:13.665Z,31.29
2017-09-08T15:52:40.098Z,31.12
2017-09-08T15:55:07.250Z,31.04
2017-09-08T15:57:33.685Z,30.86
2017-09-08T16:00:00.120Z,30.86
2017-09-08T16:02:26.543Z,30.74
2017-09-08T16:04:52.995Z,30.64
2017-09-08T16:07:19.425Z,30.59
2017-09-08T16:09:45.860Z,30.44
2017-09-08T16:12:13.114Z,30.34
2017-09-08T16:14:39.550Z,30.29
2017-09-08T16:17:05.985Z,30.17
2017-09-08T16:19:32.418Z,30.11
2017-09-08T16:21:58.854Z,30.02
2017-09-08T16:24:25.288Z,29.93
2017-09-08T16:26:51.723Z,29.85
2017-09-08T16:29:18.874Z,29.75
2017-09-08T16:31:45.309Z,29.60
2017-09-08T16:34:11.745Z,29.51
2017-09-08T16:36:38.181Z,29.42
2017-09-08T16:39:04.718Z,29.33
2017-09-08T16:41:31.153Z,29.22
2017-09-08T16:43:57.551Z,29.14
2017-09-08T16:46:24.739Z,29.05
2017-09-08T16:48:51.179Z,28.93
2017-09-08T16:51:17.565Z,28.77
2017-09-08T16:53:44.044Z,28.70
2017-09-08T16:56:10.478Z,28.59
2017-09-08T16:58:37.015Z,28.46
2017-09-08T17:01:03.450Z,28.28
2017-09-08T17:03:30.706Z,28.17
2017-09-08T17:05:57.141Z,28.09
2017-09-08T17:08:23.524Z,27.99
2017-09-08T17:10:50.011Z,27.88
2017-09-08T17:13:16.430Z,27.81
2017-09-08T17:15:42.881Z,27.75
2017-09-08T17:18:09.340Z,27.69
2017-09-08T17:20:36.464Z,27.64
2017-09-08T17:23:03.004Z,27.55
2017-09-08T17:25:29.420Z,27.48
2017-09-08T17:27:55.874Z,27.38
2017-09-08T17:30:22.310Z,27.32
2017-09-08T17:32:48.744Z,27.24
2017-09-08T17:35:15.177Z,27.10
2017-09-08T17:37:42.259Z,26.96
2017-09-08T17:40:08.763Z,26.88
2017-09-08T17:42:35.198Z,26.85
2017-09-08T17:45:01.634Z,26.73
2017-09-08T17:47:28.070Z,26.58
2017-09-08T17:49:54.507Z,26.53
2017-09-08T17:52:20.939Z,26.34
2017-09-08T17:54:48.090Z,26.33
2017-09-08T17:57:14.526Z,26.26
2017-09-08T17:59:40.947Z,26.19
2017-09-08T18:02:07.390Z,26.23
2017-09-08T18:04:33.829Z,26.18
2017-09-08T18:07:00.264Z,26.15
2017-09-08T18:09:26.698Z,26.11
2017-09-08T18:11:53.851Z,26.06
2017-09-08T18:14:20.287Z,26.04
2017-09-08T18:16:46.724Z,25.98
2017-09-08T18:19:13.155Z,25.92
2017-09-08T18:21:39.544Z,25.84
2017-09-08T18:24:06.025Z,25.75
2017-09-08T18:26:32.466Z,25.76
2017-09-08T18:28:59.714Z,25.74
2017-09-08T18:31:26.149Z,25.61
2017-09-08T18:33:52.585Z,25.46
2017-09-08T18:36:19.116Z,25.34
2017-09-08T18:38:45.658Z,25.28
2017-09-08T18:41:12.092Z,25.24
2017-09-08T18:43:38.530Z,25.15
2017-09-08T18:46:05.782Z,25.11
2017-09-08T18:48:32.219Z,25.03
2017-09-08T18:50:58.652Z,25.02
2017-09-08T18:53:25.086Z,24.95
2017-09-08T18:55:51.522Z,24.84
2017-09-08T18:58:17.962Z,24.79
2017-09-08T19:00:44.390Z,24.80
2017-09-08T19:03:11.649Z,24.64
2017-09-08T19:05:38.084Z,24.52
2017-09-08T19:08:04.515Z,24.38
2017-09-08T19:10:30.950Z,24.38
2017-09-08T19:12:57.385Z,24.34
2017-09-08T19:15:23.822Z,24.36
2017-09-08T19:17:50.258Z,24.33
2017-09-08T19:20:17.513Z,24.26
2017-09-08T19:22:43.945Z,24.23
2017-09-08T19:25:10.381Z,24.19
2017-09-08T19:27:36.815Z,24.07
2017-09-08T19:30:03.253Z,24.03
2017-09-08T19:32:29.691Z,24.06
2017-09-08T19:34:56.117Z,23.99
2017-09-08T19:37:23.372Z,23.98
2017-09-08T19:39:49.806Z,24.05
2017-09-08T19:42:16.242Z,24.10
2017-09-08T19:44:42.629Z,24.00
2017-09-08T19:47:09.111Z,23.88
2017-09-08T19:49:35.501Z,23.83
2017-09-08T19:52:01.982Z,23.77
2017-09-08T19:54:29.131Z,23.65
2017-09-08T19:56:55.521Z,23.64
2017-09-08T19:59:22.007Z,23.66
2017-09-08T20:01:48.439Z,23.59
2017-09-08T20:04:14.872Z,23.50
2017-09-08T20:06:41.308Z,23.48
2017-09-08T20:09:07.742Z,23.44
2017-09-08T20:11:34.983Z,23.38
2017-09-08T20:14:01.425Z,23.25
2017-09-08T20:16:27.866Z,23.30
2017-09-08T20:18:54.269Z,23.28
2017-09-08T20:21:20.735Z,23.27
2017-09-08T20:23:47.170Z,23.21
2017-09-08T20:26:13.606Z,23.20
2017-09-08T20:28:40.757Z,23.14
2017-09-08T20:31:07.189Z,23.08
2017-09-08T20:33:33.627Z,23.09
2017-09-08T20:36:00.062Z,23.03
2017-09-08T20:38:26.498Z,22.96
2017-09-08T20:40:52.932Z,22.84
2017-09-08T20:43:19.368Z,22.85
2017-09-08T20:45:46.518Z,22.88
2017-09-08T20:48:12.954Z,22.82
2017-09-08T20:50:39.368Z,22.82
2017-09-08T20:53:05.814Z,22.81
2017-09-08T20:55:32.155Z,22.87
2017-09-08T20:57:58.589Z,22.86
2017-09-08T21:00:25.025Z,22.73
2017-09-08T21:02:52.177Z,22.73
2017-09-08T21:05:18.614Z,22.73
2017-09-08T21:07:45.019Z,22.75
2017-09-08T21:10:11.494Z,22.65
2017-09-08T21:12:37.919Z,22.56
2017-09-08T21:15:04.353Z,22.48
2017-09-08T21:17:30.788Z,22.42
2017-09-08T21:19:57.940Z,22.34
2017-09-08T21:22:24.375Z,22.30
2017-09-08T21:24:50.912Z,22.26
2017-09-08T21:27:17.345Z,22.30
2017-09-08T21:29:43.891Z,22.34
2017-09-08T21:32:10.317Z,22.35
2017-09-08T21:34:36.752Z,22.31
2017-09-08T21:37:03.904Z,22.24
2017-09-08T21:39:30.339Z,22.17
2017-09-08T21:41:56.773Z,22.06
2017-09-08T21:44:23.209Z,22.00
2017-09-08T21:46:49.643Z,22.01
2017-09-08T21:49:16.078Z,22.02
2017-09-08T21:51:42.513Z,22.01
2017-09-08T21:54:09.768Z,22.10
2017-09-08T21:56:36.207Z,22.15
2017-09-08T21:59:02.637Z,22.19
2017-09-08T22:01:29.029Z,22.26
2017-09-08T22:03:55.480Z,22.29
2017-09-08T22:06:21.946Z,22.32
2017-09-08T22:08:48.378Z,22.28
2017-09-08T22:11:15.631Z,22.27
2017-09-08T22:13:42.062Z,22.24
2017-09-08T22:16:08.489Z,22.22
2017-09-08T22:18:34.938Z,22.12
2017-09-08T22:21:01.376Z,22.13
2017-09-08T22:23:27.807Z,22.22
2017-09-08T22:25:54.247Z,22.21
2017-09-08T22:28:21.496Z,22.10
2017-09-08T22:30:47.930Z,22.00
2017-09-08T22:33:14.364Z,21.97
2017-09-08T22:35:40.901Z,22.01
2017-09-08T22:38:07.337Z,22.10
2017-09-08T22:40:33.769Z,22.25
2017-09-08T22:43:00.208Z,22.36
2017-09-08T22:45:27.361Z,22.47
2017-09-08T22:47:53.793Z,22.58
2017-09-08T22:50:20.228Z,22.63
2017-09-08T22:52:46.663Z,22.70
2017-09-08T22:55:13.098Z,22.73
2017-09-08T22:57:39.488Z,22.78
2017-09-08T23:00:05.968Z,22.82
2017-09-08T23:02:33.119Z,22.83
2017-09-08T23:04:59.509Z,22.87
2017-09-08T23:07:25.989Z,22.89
2017-09-08T23:09:52.404Z,22.94
2017-09-08T23:12:18.859Z,22.91
2017-09-08T23:14:45.293Z,22.83
2017-09-08T23:17:11.733Z,22.81
2017-09-08T23:19:38.975Z,22.79
2017-09-08T23:22:05.414Z,22.79
2017-09-08T23:24:31.856Z,22.78
2017-09-08T23:26:58.289Z,22.82
2017-09-08T23:29:24.725Z,22.78
2017-09-08T23:31:51.157Z,22.77
2017-09-08T23:34:17.597Z,22.72
2017-09-08T23:36:44.745Z,22.73
2017-09-08T23:39:11.178Z,22.75
2017-09-08T23:41:37.614Z,22.64
2017-09-08T23:44:04.049Z,22.51
2017-09-08T23:46:30.483Z,22.45
2017-09-08T23:48:56.921Z,22.37
2017-09-08T23:51:23.353Z,22.34
2017-09-08T23:53:50.570Z,22.34
2017-09-08T23:56:17.044Z,22.20
2017-09-08T23:58:43.478Z,22.02
